createdAt,value
2023-03-29T04:36:27.631Z,80.56
2023-03-29T04:39:32.171Z,80.56
2023-03-29T04:42:35.445Z,81.98
2023-03-29T04:45:39.357Z,82.33
2023-03-29T04:48:42.068Z,82.42
2023-03-29T04:51:44.648Z,81.74
2023-03-29T04:54:47.277Z,81.70
2023-03-29T04:57:49.863Z,81.88
2023-03-29T05:00:55.131Z,78.60
2023-03-29T05:03:57.750Z,82.02
2023-03-29T05:07:02.726Z,80.40
2023-03-29T05:10:06.922Z,80.32
2023-03-29T05:13:10.380Z,78.86
2023-03-29T05:16:13.242Z,78.92
2023-03-29T05:19:16.897Z,78.38
2023-03-29T05:22:20.579Z,79.58
2023-03-29T05:25:23.799Z,78.63
2023-03-29T05:28:27.364Z,78.23
2023-03-29T05:31:30.718Z,77.01
2023-03-29T05:34:33.517Z,76.97
2023-03-29T05:37:36.330Z,77.52
2023-03-29T05:40:39.351Z,78.71
2023-03-29T05:43:42.394Z,75.74
2023-03-29T05:46:45.409Z,76.39
2023-03-29T05:49:48.220Z,74.53
2023-03-29T05:52:52.219Z,75.84
2023-03-29T05:55:55.377Z,74.05
2023-03-29T05:58:58.790Z,73.00
2023-03-29T06:02:03.997Z,72.71
2023-03-29T06:05:08.087Z,72.14
2023-03-29T06:08:12.254Z,73.39
2023-03-29T06:11:16.147Z,71.46
2023-03-29T06:14:19.750Z,71.06
2023-03-29T06:17:23.054Z,71.29
2023-03-29T06:20:26.514Z,70.27
2023-03-29T06:23:29.711Z,71.52
2023-03-29T06:26:32.571Z,70.93
2023-03-29T06:29:35.303Z,70.96
2023-03-29T06:32:38.095Z,70.78
2023-03-29T06:35:46.130Z,70.41
2023-03-29T06:38:48.867Z,70.12
2023-03-29T06:41:51.629Z,68.50
2023-03-29T06:44:56.215Z,67.55
2023-03-29T06:47:59.703Z,67.52
2023-03-29T06:51:02.638Z,66.60
2023-03-29T06:54:05.806Z,65.87
2023-03-29T06:57:08.691Z,65.05
2023-03-29T07:00:17.969Z,63.76
2023-03-29T07:03:23.610Z,64.89
2023-03-29T07:06:26.601Z,64.26
2023-03-29T07:09:30.189Z,64.09
2023-03-29T07:12:32.836Z,64.51
2023-03-29T07:15:35.765Z,63.48
2023-03-29T07:18:41.779Z,62.20
2023-03-29T07:21:44.444Z,61.31
2023-03-29T07:24:47.077Z,60.71
2023-03-29T07:27:49.702Z,59.48
2023-03-29T07:30:52.905Z,60.90
2023-03-29T07:33:56.245Z,58.89
2023-03-29T07:36:59.421Z,59.13
2023-03-29T07:40:04.414Z,59.23
2023-03-29T07:43:09.180Z,57.96
2023-03-29T07:46:11.806Z,57.49
2023-03-29T07:49:14.448Z,57.64
2023-03-29T07:52:17.519Z,56.84
2023-03-29T07:55:20.166Z,55.69
2023-03-29T07:58:22.764Z,56.65
2023-03-29T08:01:25.783Z,57.71
2023-03-29T08:04:28.572Z,57.58
2023-03-29T08:07:31.446Z,58.38
2023-03-29T08:10:34.761Z,56.35
2023-03-29T08:13:37.529Z,56.39
2023-03-29T08:16:40.191Z,52.88
2023-03-29T08:19:51.034Z,54.11
2023-03-29T08:22:54.734Z,52.81
2023-03-29T08:25:57.299Z,52.05
2023-03-29T08:28:59.888Z,51.59
2023-03-29T08:32:03.042Z,51.24
2023-03-29T08:35:09.768Z,50.30
2023-03-29T08:38:12.797Z,49.90
2023-03-29T08:41:29.431Z,48.96
2023-03-29T08:44:43.261Z,50.39
2023-03-29T08:48:04.544Z,50.98
2023-03-29T08:51:32.791Z,49.84
2023-03-29T08:54:40.527Z,50.15
2023-03-29T08:57:47.604Z,49.79
2023-03-29T09:01:05.159Z,48.56
2023-03-29T09:04:16.669Z,47.26
2023-03-29T09:07:19.256Z,46.65
2023-03-29T09:10:27.329Z,45.28
2023-03-29T09:13:42.546Z,45.45
2023-03-29T09:17:11.818Z,44.74
2023-03-29T09:20:37.526Z,46.11
2023-03-29T09:24:01.324Z,44.82
2023-03-29T09:27:22.525Z,44.79
2023-03-29T09:30:31.184Z,43.44
2023-03-29T09:33:42.967Z,45.98
2023-03-29T09:36:50.006Z,46.71
2023-03-29T09:39:55.931Z,42.20
2023-03-29T09:42:58.699Z,43.61
2023-03-29T09:46:03.387Z,42.51
2023-03-29T09:49:07.135Z,43.35
2023-03-29T09:52:13.107Z,40.70
2023-03-29T09:55:16.908Z,39.50
2023-03-29T09:58:27.682Z,40.34
2023-03-29T10:01:45.425Z,38.43
2023-03-29T10:04:55.310Z,40.61
2023-03-29T10:07:59.058Z,39.48
2023-03-29T10:11:03.743Z,39.51
2023-03-29T10:14:35.393Z,40.06
2023-03-29T10:17:40.560Z,42.67
2023-03-29T10:20:43.187Z,41.90
2023-03-29T10:23:46.235Z,40.89
2023-03-29T10:26:56.463Z,39.54
2023-03-29T10:29:59.783Z,41.69
2023-03-29T10:33:02.560Z,42.29
2023-03-29T10:36:06.847Z,40.13
2023-03-29T10:39:10.173Z,39.45
2023-03-29T10:42:15.044Z,42.02
2023-03-29T10:45:31.415Z,42.04
2023-03-29T10:48:34.852Z,40.79
2023-03-29T10:51:37.620Z,41.04
2023-03-29T10:54:40.509Z,41.50
2023-03-29T10:58:07.755Z,41.33
2023-03-29T11:01:15.604Z,39.90
2023-03-29T11:04:36.537Z,40.02
2023-03-29T11:07:57.615Z,40.19
2023-03-29T11:11:32.995Z,40.67
2023-03-29T11:14:44.625Z,40.99
2023-03-29T11:18:22.815Z,39.13
2023-03-29T11:21:50.094Z,40.97
2023-03-29T11:25:27.790Z,40.18
2023-03-29T11:28:35.609Z,40.92
2023-03-29T11:31:41.788Z,41.15
2023-03-29T11:34:57.502Z,42.93
2023-03-29T11:38:18.134Z,42.71
2023-03-29T11:41:31.907Z,42.38
2023-03-29T11:44:34.574Z,42.21
2023-03-29T11:47:37.873Z,43.78
2023-03-29T11:50:48.695Z,40.90
2023-03-29T11:54:16.438Z,40.68
2023-03-29T11:57:23.913Z,46.44
2023-03-29T12:00:41.068Z,42.17
2023-03-29T12:03:51.013Z,43.56
2023-03-29T12:07:02.510Z,41.48
2023-03-29T12:10:24.248Z,41.50
2023-03-29T12:13:29.167Z,41.57
2023-03-29T12:16:46.868Z,42.10
2023-03-29T12:20:01.188Z,40.69
2023-03-29T12:23:03.782Z,39.92
2023-03-29T12:26:09.246Z,43.20
2023-03-29T12:29:32.796Z,42.31
2023-03-29T12:32:50.590Z,41.08
2023-03-29T12:35:59.661Z,41.98
2023-03-29T12:39:02.436Z,41.13
2023-03-29T12:42:23.258Z,41.33
2023-03-29T12:45:43.121Z,41.73
2023-03-29T12:48:57.358Z,41.44
2023-03-29T12:52:00.354Z,40.92
2023-03-29T12:55:21.881Z,41.53
2023-03-29T12:58:47.631Z,42.50
2023-03-29T13:02:15.624Z,41.54
2023-03-29T13:05:34.547Z,42.17
2023-03-29T13:08:42.564Z,41.46
2023-03-29T13:11:45.071Z,40.54
2023-03-29T13:14:54.477Z,41.64
2023-03-29T13:18:06.358Z,40.95
2023-03-29T13:21:09.348Z,43.23
2023-03-29T13:24:39.777Z,42.34
2023-03-29T13:27:45.512Z,42.04
2023-03-29T13:31:05.795Z,42.80
2023-03-29T13:34:57.756Z,43.05
2023-03-29T13:38:09.148Z,42.51
2023-03-29T13:41:44.636Z,41.39
2023-03-29T13:44:49.270Z,40.89
2023-03-29T13:48:05.871Z,42.12
2023-03-29T13:51:18.259Z,43.28
2023-03-29T13:54:23.940Z,44.89
2023-03-29T13:57:39.253Z,44.02
2023-03-29T14:01:02.088Z,42.41
2023-03-29T14:04:05.551Z,43.89
2023-03-29T14:07:08.329Z,43.88
2023-03-29T14:10:23.309Z,44.83
2023-03-29T14:13:26.091Z,45.11
2023-03-29T14:16:33.246Z,44.60
2023-03-29T14:19:37.010Z,44.70
2023-03-29T14:22:41.996Z,43.78
2023-03-29T14:25:44.571Z,43.37
2023-03-29T14:28:48.896Z,45.79
2023-03-29T14:31:51.585Z,44.86
2023-03-29T14:34:54.161Z,43.89
2023-03-29T14:37:56.802Z,44.96
2023-03-29T14:40:59.921Z,45.75
2023-03-29T14:44:03.383Z,45.88
2023-03-29T14:47:06.034Z,43.77
2023-03-29T14:50:20.144Z,44.76
2023-03-29T14:53:23.336Z,45.17
2023-03-29T14:56:26.577Z,43.95
2023-03-29T14:59:41.968Z,45.37
2023-03-29T15:02:54.746Z,46.68
2023-03-29T15:06:02.524Z,45.26
